KSEA/SEA METAR and TAF weather

Enter ICAO airport designator
Station Type Date Time Source
KSEA METAR 2020/11/25 22:53 UTC NOAA

KSEA 252253Z 21007KT 10SM FEW018 BKN043 BKN090 09/04 A3015 RMK AO2 SLP218 T00890044 $


Station Type Date Time Source
KSEA Decoded METAR 2020/11/25 22:53 UTC NOAA

SEATTLE-TACOMA INTERNATIONAL AIRPORT , WA, United States (KSEA) 47-27N 122-19W 136M
Nov 25, 2020 - 05:53 PM EST / 2020.11.25 2253 UTC
Wind: from the SSW (210 degrees) at 8 MPH (7 KT):0
Visibility: 10 mile(s):0
Sky conditions: mostly cloudy
Temperature: 48.0 F (8.9 C)
Dew Point: 39.9 F (4.4 C)
Relative Humidity: 73%
Pressure (altimeter): 30.15 in. Hg (1020 hPa)
ob: KSEA 252253Z 21007KT 10SM FEW018 BKN043 BKN090 09/04 A3015 RMK AO2 SLP218 T00890044
cycle: 23

Station Type Date Time Source
KSEA TAF 2020/11/25 21:03 UTC NOAA

TAF
AMD KSEA 252101Z 2521/2624 20007KT P6SM BKN025
TEMPO 2522/2602 SCT030
FM260900 18005KT P6SM OVC015
FM261700 18005KT P6SM BKN020
FM262200 18005KT P6SM BKN035

Example: see airport list